sensor_id;sensor_type;location;lat;lon;timestamp;P1;durP1;ratioP1;P2;durP2;ratioP2
8401;SDS011;4238;48.404;9.498;2023-05-24T04:06:39;7.67;;;6.90;;
8401;SDS011;4238;48.404;9.498;2023-05-24T04:09:06;8.30;;;6.97;;
8401;SDS011;4238;48.404;9.498;2023-05-24T04:11:34;8.27;;;7.47;;
8401;SDS011;4238;48.404;9.498;2023-05-24T04:14:01;8.00;;;7.20;;
8401;SDS011;4238;48.404;9.498;2023-05-24T04:16:28;7.90;;;6.67;;
8401;SDS011;4238;48.404;9.498;2023-05-24T04:18:58;8.93;;;7.70;;
8401;SDS011;4238;48.404;9.498;2023-05-24T04:21:27;11.17;;;8.30;;
8401;SDS011;4238;48.404;9.498;2023-05-24T04:23:58;9.47;;;7.33;;
8401;SDS011;4238;48.404;9.498;2023-05-24T04:26:25;7.97;;;7.27;;
8401;SDS011;4238;48.404;9.498;2023-05-24T04:28:53;8.43;;;7.63;;
8401;SDS011;4238;48.404;9.498;2023-05-24T04:31:21;9.03;;;7.93;;
8401;SDS011;4238;48.404;9.498;2023-05-24T04:33:48;10.23;;;7.73;;
8401;SDS011;4238;48.404;9.498;2023-05-24T04:36:15;8.67;;;7.77;;
8401;SDS011;4238;48.404;9.498;2023-05-24T04:38:42;9.23;;;7.37;;
8401;SDS011;4238;48.404;9.498;2023-05-24T04:41:11;9.30;;;7.87;;
8401;SDS011;4238;48.404;9.498;2023-05-24T04:43:38;11.13;;;8.43;;
8401;SDS011;4238;48.404;9.498;2023-05-24T04:46:05;8.83;;;7.93;;
8401;SDS011;4238;48.404;9.498;2023-05-24T04:48:32;8.47;;;7.50;;
8401;SDS011;4238;48.404;9.498;2023-05-24T04:50:59;8.57;;;7.70;;
8401;SDS011;4238;48.404;9.498;2023-05-24T04:53:26;9.50;;;7.63;;
8401;SDS011;4238;48.404;9.498;2023-05-24T04:55:53;9.27;;;8.37;;
8401;SDS011;4238;48.404;9.498;2023-05-24T04:58:22;8.53;;;7.63;;
8401;SDS011;4238;48.404;9.498;2023-05-24T05:00:49;10.30;;;8.40;;
8401;SDS011;4238;48.404;9.498;2023-05-24T05:03:15;10.13;;;9.23;;
8401;SDS011;4238;48.404;9.498;2023-05-24T05:05:42;9.25;;;8.35;;
8401;SDS011;4238;48.404;9.498;2023-05-24T05:08:10;10.27;;;8.65;;
8401;SDS011;4238;48.404;9.498;2023-05-24T05:10:38;9.13;;;8.23;;
8401;SDS011;4238;48.404;9.498;2023-05-24T05:13:05;9.70;;;7.53;;
8401;SDS011;4238;48.404;9.498;2023-05-24T05:15:33;11.00;;;8.63;;
8401;SDS011;4238;48.404;9.498;2023-05-24T05:18:00;9.53;;;8.33;;
8401;SDS011;4238;48.404;9.498;2023-05-24T05:20:27;8.57;;;7.63;;
8401;SDS011;4238;48.404;9.498;2023-05-24T05:22:54;9.73;;;7.63;;
8401;SDS011;4238;48.404;9.498;2023-05-24T05:25:21;8.60;;;7.77;;
8401;SDS011;4238;48.404;9.498;2023-05-24T05:27:48;8.40;;;7.60;;
8401;SDS011;4238;48.404;9.498;2023-05-24T05:30:15;8.95;;;8.05;;
8401;SDS011;4238;48.404;9.498;2023-05-24T05:32:43;8.60;;;7.57;;
8401;SDS011;4238;48.404;9.498;2023-05-24T05:35:10;9.30;;;6.80;;
8401;SDS011;4238;48.404;9.498;2023-05-24T05:37:37;7.50;;;6.80;;
8401;SDS011;4238;48.404;9.498;2023-05-24T05:40:04;9.83;;;8.00;;
8401;SDS011;4238;48.404;9.498;2023-05-24T05:42:31;8.73;;;7.40;;
8401;SDS011;4238;48.404;9.498;2023-05-24T05:44:58;8.60;;;7.47;;
8401;SDS011;4238;48.404;9.498;2023-05-24T05:47:25;8.70;;;7.80;;
8401;SDS011;4238;48.404;9.498;2023-05-24T05:49:53;9.73;;;7.45;;
8401;SDS011;4238;48.404;9.498;2023-05-24T05:52:20;7.68;;;6.97;;
8401;SDS011;4238;48.404;9.498;2023-05-24T05:54:47;11.50;;;7.37;;
8401;SDS011;4238;48.404;9.498;2023-05-24T05:57:15;8.53;;;7.63;;
8401;SDS011;4238;48.404;9.498;2023-05-24T05:59:43;8.55;;;7.45;;
8401;SDS011;4238;48.404;9.498;2023-05-24T06:02:10;8.75;;;7.30;;
8401;SDS011;4238;48.404;9.498;2023-05-24T06:04:37;10.67;;;6.83;;
8401;SDS011;4238;48.404;9.498;2023-05-24T06:07:06;9.30;;;7.20;;
8401;SDS011;4238;48.404;9.498;2023-05-24T06:09:32;8.87;;;7.17;;
8401;SDS011;4238;48.404;9.498;2023-05-24T06:11:59;9.93;;;7.47;;
8401;SDS011;4238;48.404;9.498;2023-05-24T06:14:26;10.00;;;7.43;;
8401;SDS011;4238;48.404;9.498;2023-05-24T06:16:53;7.97;;;7.10;;
8401;SDS011;4238;48.404;9.498;2023-05-24T06:19:20;7.50;;;6.80;;
8401;SDS011;4238;48.404;9.498;2023-05-24T06:21:47;7.50;;;6.75;;
8401;SDS011;4238;48.404;9.498;2023-05-24T06:24:16;10.02;;;7.22;;
8401;SDS011;4238;48.404;9.498;2023-05-24T06:26:44;7.40;;;6.53;;
8401;SDS011;4238;48.404;9.498;2023-05-24T06:29:12;10.33;;;7.23;;
8401;SDS011;4238;48.404;9.498;2023-05-24T06:31:39;9.33;;;7.07;;
8401;SDS011;4238;48.404;9.498;2023-05-24T06:34:06;9.93;;;6.72;;
8401;SDS011;4238;48.404;9.498;2023-05-24T06:36:33;8.50;;;6.33;;
8401;SDS011;4238;48.404;9.498;2023-05-24T06:39:05;7.85;;;6.82;;
8401;SDS011;4238;48.404;9.498;2023-05-24T06:41:34;8.07;;;6.35;;
8401;SDS011;4238;48.404;9.498;2023-05-24T06:44:01;15.40;;;7.30;;
8401;SDS011;4238;48.404;9.498;2023-05-24T06:46:27;7.07;;;6.07;;
8401;SDS011;4238;48.404;9.498;2023-05-24T06:48:55;11.23;;;6.43;;
8401;SDS011;4238;48.404;9.498;2023-05-24T06:51:22;7.47;;;6.18;;
8401;SDS011;4238;48.404;9.498;2023-05-24T06:53:49;8.48;;;6.75;;
8401;SDS011;4238;48.404;9.498;2023-05-24T06:56:17;9.55;;;6.28;;
8401;SDS011;4238;48.404;9.498;2023-05-24T06:58:45;7.25;;;6.40;;
8401;SDS011;4238;48.404;9.498;2023-05-24T07:01:12;7.88;;;6.25;;
8401;SDS011;4238;48.404;9.498;2023-05-24T07:03:39;6.22;;;5.43;;
8401;SDS011;4238;48.404;9.498;2023-05-24T07:06:06;8.82;;;6.20;;
8401;SDS011;4238;48.404;9.498;2023-05-24T07:08:34;10.65;;;6.50;;
8401;SDS011;4238;48.404;9.498;2023-05-24T07:11:01;7.03;;;6.32;;
8401;SDS011;4238;48.404;9.498;2023-05-24T07:13:28;7.13;;;6.30;;
8401;SDS011;4238;48.404;9.498;2023-05-24T07:15:56;10.93;;;6.70;;
8401;SDS011;4238;48.404;9.498;2023-05-24T07:18:23;8.52;;;5.80;;
8401;SDS011;4238;48.404;9.498;2023-05-24T07:20:50;7.28;;;5.78;;
8401;SDS011;4238;48.404;9.498;2023-05-24T07:23:18;11.50;;;6.03;;
8401;SDS011;4238;48.404;9.498;2023-05-24T07:25:45;8.77;;;6.03;;
8401;SDS011;4238;48.404;9.498;2023-05-24T07:28:13;8.20;;;6.25;;
8401;SDS011;4238;48.404;9.498;2023-05-24T07:30:43;9.35;;;6.63;;
8401;SDS011;4238;48.404;9.498;2023-05-24T07:33:12;7.45;;;6.00;;
8401;SDS011;4238;48.404;9.498;2023-05-24T07:35:39;6.85;;;6.15;;
8401;SDS011;4238;48.404;9.498;2023-05-24T07:38:06;7.95;;;5.80;;
8401;SDS011;4238;48.404;9.498;2023-05-24T07:40:33;9.95;;;5.80;;
8401;SDS011;4238;48.404;9.498;2023-05-24T07:43:00;7.55;;;5.85;;
8401;SDS011;4238;48.404;9.498;2023-05-24T07:45:27;9.85;;;7.18;;
8401;SDS011;4238;48.404;9.498;2023-05-24T07:47:54;8.40;;;5.60;;
8401;SDS011;4238;48.404;9.498;2023-05-24T07:50:22;23.98;;;10.30;;
8401;SDS011;4238;48.404;9.498;2023-05-24T07:52:50;8.30;;;5.78;;
8401;SDS011;4238;48.404;9.498;2023-05-24T07:55:17;9.27;;;6.32;;
8401;SDS011;4238;48.404;9.498;2023-05-24T07:57:44;10.18;;;6.28;;
8401;SDS011;4238;48.404;9.498;2023-05-24T08:00:11;11.27;;;6.05;;
8401;SDS011;4238;48.404;9.498;2023-05-24T08:02:40;8.18;;;6.55;;
8401;SDS011;4238;48.404;9.498;2023-05-24T08:05:08;6.82;;;5.90;;
8401;SDS011;4238;48.404;9.498;2023-05-24T08:07:37;8.48;;;5.68;;
8401;SDS011;4238;48.404;9.498;2023-05-24T08:10:06;7.72;;;5.80;;
8401;SDS011;4238;48.404;9.498;2023-05-24T08:12:34;7.43;;;5.65;;
8401;SDS011;4238;48.404;9.498;2023-05-24T08:15:01;6.05;;;5.45;;
8401;SDS011;4238;48.404;9.498;2023-05-24T08:17:28;9.50;;;6.03;;
8401;SDS011;4238;48.404;9.498;2023-05-24T08:19:55;6.85;;;5.35;;
8401;SDS011;4238;48.404;9.498;2023-05-24T08:22:22;8.93;;;6.05;;
8401;SDS011;4238;48.404;9.498;2023-05-24T08:24:51;7.85;;;5.80;;
8401;SDS011;4238;48.404;9.498;2023-05-24T08:27:18;6.70;;;5.95;;
8401;SDS011;4238;48.404;9.498;2023-05-24T08:29:45;7.13;;;5.93;;
8401;SDS011;4238;48.404;9.498;2023-05-24T08:32:12;5.68;;;5.18;;
8401;SDS011;4238;48.404;9.498;2023-05-24T08:34:40;8.95;;;6.15;;
8401;SDS011;4238;48.404;9.498;2023-05-24T08:37:08;7.13;;;5.80;;
8401;SDS011;4238;48.404;9.498;2023-05-24T08:39:35;9.00;;;6.30;;
8401;SDS011;4238;48.404;9.498;2023-05-24T08:42:03;6.65;;;5.60;;
8401;SDS011;4238;48.404;9.498;2023-05-24T08:44:33;8.50;;;6.53;;
8401;SDS011;4238;48.404;9.498;2023-05-24T08:47:04;8.52;;;6.40;;
8401;SDS011;4238;48.404;9.498;2023-05-24T08:49:32;8.10;;;6.20;;
8401;SDS011;4238;48.404;9.498;2023-05-24T08:52:01;10.05;;;5.95;;
8401;SDS011;4238;48.404;9.498;2023-05-24T08:54:28;8.88;;;6.45;;
8401;SDS011;4238;48.404;9.498;2023-05-24T08:56:56;6.78;;;6.07;;
8401;SDS011;4238;48.404;9.498;2023-05-24T08:59:25;8.63;;;5.63;;
8401;SDS011;4238;48.404;9.498;2023-05-24T09:01:52;8.45;;;6.10;;
8401;SDS011;4238;48.404;9.498;2023-05-24T09:04:19;9.40;;;6.18;;
8401;SDS011;4238;48.404;9.498;2023-05-24T09:06:47;9.13;;;6.05;;
8401;SDS011;4238;48.404;9.498;2023-05-24T09:09:15;8.35;;;6.10;;
8401;SDS011;4238;48.404;9.498;2023-05-24T09:11:46;7.82;;;5.63;;
8401;SDS011;4238;48.404;9.498;2023-05-24T09:14:17;10.00;;;5.93;;
8401;SDS011;4238;48.404;9.498;2023-05-24T09:16:46;7.00;;;6.30;;
8401;SDS011;4238;48.404;9.498;2023-05-24T09:19:13;10.35;;;6.30;;
8401;SDS011;4238;48.404;9.498;2023-05-24T09:21:41;9.20;;;6.32;;
8401;SDS011;4238;48.404;9.498;2023-05-24T09:24:09;10.85;;;7.18;;
8401;SDS011;4238;48.404;9.498;2023-05-24T09:26:37;12.60;;;7.13;;
8401;SDS011;4238;48.404;9.498;2023-05-24T09:29:05;11.38;;;6.70;;
8401;SDS011;4238;48.404;9.498;2023-05-24T09:31:33;10.63;;;7.15;;
8401;SDS011;4238;48.404;9.498;2023-05-24T09:34:02;9.82;;;6.22;;
8401;SDS011;4238;48.404;9.498;2023-05-24T09:36:34;9.98;;;6.18;;
8401;SDS011;4238;48.404;9.498;2023-05-24T09:39:05;11.30;;;6.57;;
8401;SDS011;4238;48.404;9.498;2023-05-24T09:41:34;8.38;;;6.22;;
8401;SDS011;4238;48.404;9.498;2023-05-24T09:44:01;7.13;;;5.70;;
8401;SDS011;4238;48.404;9.498;2023-05-24T09:46:29;8.77;;;6.15;;
8401;SDS011;4238;48.404;9.498;2023-05-24T09:49:03;8.60;;;5.97;;
8401;SDS011;4238;48.404;9.498;2023-05-24T09:51:33;8.38;;;6.40;;
8401;SDS011;4238;48.404;9.498;2023-05-24T09:54:02;8.80;;;6.00;;
8401;SDS011;4238;48.404;9.498;2023-05-24T09:56:31;9.13;;;6.00;;
8401;SDS011;4238;48.404;9.498;2023-05-24T09:59:03;11.63;;;5.93;;
8401;SDS011;4238;48.404;9.498;2023-05-24T10:01:32;8.68;;;6.30;;
8401;SDS011;4238;48.404;9.498;2023-05-24T10:03:59;11.48;;;6.25;;
8401;SDS011;4238;48.404;9.498;2023-05-24T10:06:31;9.70;;;6.30;;
8401;SDS011;4238;48.404;9.498;2023-05-24T10:09:01;6.32;;;5.65;;
8401;SDS011;4238;48.404;9.498;2023-05-24T10:11:31;7.05;;;5.68;;
8401;SDS011;4238;48.404;9.498;2023-05-24T10:14:02;7.82;;;5.80;;
8401;SDS011;4238;48.404;9.498;2023-05-24T10:16:31;11.52;;;6.65;;
8401;SDS011;4238;48.404;9.498;2023-05-24T10:18:58;6.95;;;5.88;;
8401;SDS011;4238;48.404;9.498;2023-05-24T10:21:24;7.70;;;5.93;;
8401;SDS011;4238;48.404;9.498;2023-05-24T10:23:56;13.32;;;5.97;;
8401;SDS011;4238;48.404;9.498;2023-05-24T10:26:24;9.57;;;6.05;;
8401;SDS011;4238;48.404;9.498;2023-05-24T10:28:59;6.47;;;5.38;;
8401;SDS011;4238;48.404;9.498;2023-05-24T10:31:30;6.57;;;5.90;;
8401;SDS011;4238;48.404;9.498;2023-05-24T10:33:59;8.13;;;6.28;;
8401;SDS011;4238;48.404;9.498;2023-05-24T10:36:28;8.40;;;5.65;;
8401;SDS011;4238;48.404;9.498;2023-05-24T10:38:58;7.55;;;5.80;;
8401;SDS011;4238;48.404;9.498;2023-05-24T10:41:25;8.30;;;6.10;;
8401;SDS011;4238;48.404;9.498;2023-05-24T10:43:53;9.23;;;6.25;;
8401;SDS011;4238;48.404;9.498;2023-05-24T10:46:23;10.65;;;6.72;;
8401;SDS011;4238;48.404;9.498;2023-05-24T10:48:58;10.65;;;6.28;;
8401;SDS011;4238;48.404;9.498;2023-05-24T10:51:29;7.00;;;5.70;;
8401;SDS011;4238;48.404;9.498;2023-05-24T10:54:14;7.63;;;5.90;;
8401;SDS011;4238;48.404;9.498;2023-05-24T10:56:43;7.65;;;5.15;;
8401;SDS011;4238;48.404;9.498;2023-05-24T11:02:38;6.30;;;5.32;;
8401;SDS011;4238;48.404;9.498;2023-05-24T11:05:05;8.80;;;5.30;;
8401;SDS011;4238;48.404;9.498;2023-05-24T11:07:32;7.72;;;5.85;;
8401;SDS011;4238;48.404;9.498;2023-05-24T11:10:14;8.35;;;5.85;;
8401;SDS011;4238;48.404;9.498;2023-05-24T11:12:42;9.00;;;5.88;;
8401;SDS011;4238;48.404;9.498;2023-05-24T11:15:09;10.60;;;9.40;;
8401;SDS011;4238;48.404;9.498;2023-05-24T11:20:37;10.68;;;7.65;;
8401;SDS011;4238;48.404;9.498;2023-05-24T11:23:04;7.10;;;5.32;;
8401;SDS011;4238;48.404;9.498;2023-05-24T11:25:34;9.85;;;5.72;;
8401;SDS011;4238;48.404;9.498;2023-05-24T11:28:02;7.10;;;5.50;;
8401;SDS011;4238;48.404;9.498;2023-05-24T11:30:32;8.88;;;5.38;;
8401;SDS011;4238;48.404;9.498;2023-05-24T11:32:59;9.27;;;5.28;;
8401;SDS011;4238;48.404;9.498;2023-05-24T11:35:26;8.10;;;5.70;;
8401;SDS011;4238;48.404;9.498;2023-05-24T11:37:53;7.90;;;5.32;;
8401;SDS011;4238;48.404;9.498;2023-05-24T11:40:21;7.20;;;5.45;;
8401;SDS011;4238;48.404;9.498;2023-05-24T11:42:50;11.02;;;5.25;;
8401;SDS011;4238;48.404;9.498;2023-05-24T11:45:17;8.68;;;5.55;;
8401;SDS011;4238;48.404;9.498;2023-05-24T11:47:47;10.68;;;5.60;;
8401;SDS011;4238;48.404;9.498;2023-05-24T11:50:14;7.75;;;5.38;;
8401;SDS011;4238;48.404;9.498;2023-05-24T11:52:41;5.70;;;5.20;;
8401;SDS011;4238;48.404;9.498;2023-05-24T11:55:10;8.27;;;5.75;;
8401;SDS011;4238;48.404;9.498;2023-05-24T11:57:38;7.13;;;5.43;;
8401;SDS011;4238;48.404;9.498;2023-05-24T12:00:13;7.95;;;5.88;;
8401;SDS011;4238;48.404;9.498;2023-05-24T12:02:49;10.52;;;5.85;;
8401;SDS011;4238;48.404;9.498;2023-05-24T12:05:17;9.05;;;5.70;;
8401;SDS011;4238;48.404;9.498;2023-05-24T12:07:44;10.10;;;5.47;;
8401;SDS011;4238;48.404;9.498;2023-05-24T12:10:13;8.35;;;5.47;;
8401;SDS011;4238;48.404;9.498;2023-05-24T12:12:41;7.68;;;5.93;;
8401;SDS011;4238;48.404;9.498;2023-05-24T12:15:09;9.00;;;5.70;;
8401;SDS011;4238;48.404;9.498;2023-05-24T12:17:40;13.10;;;6.43;;
8401;SDS011;4238;48.404;9.498;2023-05-24T12:20:08;8.15;;;5.85;;
8401;SDS011;4238;48.404;9.498;2023-05-24T12:22:36;9.70;;;7.05;;
8401;SDS011;4238;48.404;9.498;2023-05-24T12:25:03;7.85;;;6.55;;
8401;SDS011;4238;48.404;9.498;2023-05-24T12:27:30;11.23;;;6.13;;
8401;SDS011;4238;48.404;9.498;2023-05-24T12:30:04;8.77;;;5.97;;
8401;SDS011;4238;48.404;9.498;2023-05-24T12:32:34;9.90;;;6.43;;
8401;SDS011;4238;48.404;9.498;2023-05-24T12:35:02;12.43;;;5.90;;
8401;SDS011;4238;48.404;9.498;2023-05-24T12:37:30;8.18;;;5.50;;
8401;SDS011;4238;48.404;9.498;2023-05-24T12:39:58;9.95;;;5.93;;
8401;SDS011;4238;48.404;9.498;2023-05-24T12:42:29;8.98;;;5.53;;
8401;SDS011;4238;48.404;9.498;2023-05-24T12:44:56;7.57;;;6.10;;
8401;SDS011;4238;48.404;9.498;2023-05-24T12:47:23;8.60;;;5.38;;
8401;SDS011;4238;48.404;9.498;2023-05-24T12:49:49;9.07;;;5.63;;
8401;SDS011;4238;48.404;9.498;2023-05-24T12:52:18;8.27;;;5.72;;
8401;SDS011;4238;48.404;9.498;2023-05-24T12:54:45;6.72;;;5.55;;
8401;SDS011;4238;48.404;9.498;2023-05-24T12:57:12;8.85;;;5.68;;
8401;SDS011;4238;48.404;9.498;2023-05-24T12:59:39;9.82;;;6.25;;
8401;SDS011;4238;48.404;9.498;2023-05-24T13:02:06;6.80;;;5.18;;
8401;SDS011;4238;48.404;9.498;2023-05-24T13:04:33;9.75;;;5.05;;
8401;SDS011;4238;48.404;9.498;2023-05-24T13:07:00;5.93;;;5.15;;
8401;SDS011;4238;48.404;9.498;2023-05-24T13:09:29;9.07;;;5.63;;
8401;SDS011;4238;48.404;9.498;2023-05-24T13:11:57;7.63;;;5.85;;
8401;SDS011;4238;48.404;9.498;2023-05-24T13:14:24;7.45;;;5.60;;
8401;SDS011;4238;48.404;9.498;2023-05-24T13:16:51;7.85;;;5.25;;
8401;SDS011;4238;48.404;9.498;2023-05-24T13:19:18;11.13;;;5.75;;
8401;SDS011;4238;48.404;9.498;2023-05-24T13:21:45;7.88;;;5.60;;
8401;SDS011;4238;48.404;9.498;2023-05-24T13:24:13;7.88;;;5.03;;
8401;SDS011;4238;48.404;9.498;2023-05-24T13:26:42;8.45;;;5.38;;
8401;SDS011;4238;48.404;9.498;2023-05-24T13:29:10;6.40;;;5.05;;
8401;SDS011;4238;48.404;9.498;2023-05-24T13:31:37;8.43;;;5.18;;
8401;SDS011;4238;48.404;9.498;2023-05-24T13:34:05;12.05;;;5.53;;
8401;SDS011;4238;48.404;9.498;2023-05-24T13:36:33;7.10;;;5.65;;
8401;SDS011;4238;48.404;9.498;2023-05-24T13:39:00;9.77;;;5.75;;
8401;SDS011;4238;48.404;9.498;2023-05-24T13:41:28;10.25;;;6.13;;
8401;SDS011;4238;48.404;9.498;2023-05-24T13:43:57;7.55;;;5.22;;
8401;SDS011;4238;48.404;9.498;2023-05-24T13:46:23;6.38;;;5.30;;
8401;SDS011;4238;48.404;9.498;2023-05-24T13:48:50;7.13;;;4.97;;
8401;SDS011;4238;48.404;9.498;2023-05-24T13:51:17;7.10;;;5.32;;
8401;SDS011;4238;48.404;9.498;2023-05-24T13:53:45;6.10;;;5.50;;
8401;SDS011;4238;48.404;9.498;2023-05-24T13:56:12;10.07;;;5.40;;
8401;SDS011;4238;48.404;9.498;2023-05-24T13:58:39;9.75;;;5.00;;
8401;SDS011;4238;48.404;9.498;2023-05-24T14:01:08;6.03;;;4.85;;
8401;SDS011;4238;48.404;9.498;2023-05-24T14:03:35;10.68;;;5.72;;
8401;SDS011;4238;48.404;9.498;2023-05-24T14:06:03;7.63;;;5.13;;
8401;SDS011;4238;48.404;9.498;2023-05-24T14:08:31;7.97;;;5.63;;
8401;SDS011;4238;48.404;9.498;2023-05-24T14:10:59;7.72;;;5.00;;
8401;SDS011;4238;48.404;9.498;2023-05-24T14:13:26;9.30;;;5.80;;
8401;SDS011;4238;48.404;9.498;2023-05-24T14:15:53;7.28;;;5.32;;
8401;SDS011;4238;48.404;9.498;2023-05-24T14:18:21;7.78;;;5.07;;
8401;SDS011;4238;48.404;9.498;2023-05-24T14:20:48;6.80;;;5.07;;
8401;SDS011;4238;48.404;9.498;2023-05-24T14:23:15;8.02;;;5.28;;
8401;SDS011;4238;48.404;9.498;2023-05-24T14:25:42;7.20;;;4.88;;
8401;SDS011;4238;48.404;9.498;2023-05-24T14:28:10;8.55;;;5.22;;
8401;SDS011;4238;48.404;9.498;2023-05-24T14:30:37;6.13;;;5.05;;
8401;SDS011;4238;48.404;9.498;2023-05-24T14:33:05;5.90;;;4.90;;
8401;SDS011;4238;48.404;9.498;2023-05-24T14:35:36;7.80;;;4.95;;
8401;SDS011;4238;48.404;9.498;2023-05-24T14:38:03;7.20;;;5.72;;
8401;SDS011;4238;48.404;9.498;2023-05-24T14:40:30;6.28;;;4.90;;
8401;SDS011;4238;48.404;9.498;2023-05-24T14:42:58;5.88;;;5.28;;
8401;SDS011;4238;48.404;9.498;2023-05-24T14:45:25;6.88;;;5.32;;
8401;SDS011;4238;48.404;9.498;2023-05-24T14:47:52;6.63;;;4.93;;
8401;SDS011;4238;48.404;9.498;2023-05-24T14:50:19;8.52;;;5.57;;
8401;SDS011;4238;48.404;9.498;2023-05-24T14:52:47;7.05;;;5.00;;
8401;SDS011;4238;48.404;9.498;2023-05-24T14:55:14;6.82;;;4.60;;
8401;SDS011;4238;48.404;9.498;2023-05-24T14:57:41;7.68;;;4.53;;
8401;SDS011;4238;48.404;9.498;2023-05-24T15:00:08;5.65;;;4.82;;
8401;SDS011;4238;48.404;9.498;2023-05-24T15:02:36;7.28;;;4.22;;
8401;SDS011;4238;48.404;9.498;2023-05-24T15:05:04;7.15;;;4.18;;
8401;SDS011;4238;48.404;9.498;2023-05-24T15:07:31;7.53;;;4.22;;
8401;SDS011;4238;48.404;9.498;2023-05-24T15:10:00;4.55;;;3.67;;
8401;SDS011;4238;48.404;9.498;2023-05-24T15:12:27;5.82;;;4.25;;
8401;SDS011;4238;48.404;9.498;2023-05-24T15:14:54;4.93;;;4.07;;
8401;SDS011;4238;48.404;9.498;2023-05-24T15:17:21;7.25;;;4.30;;
8401;SDS011;4238;48.404;9.498;2023-05-24T15:19:48;7.10;;;4.10;;
8401;SDS011;4238;48.404;9.498;2023-05-24T15:22:15;7.22;;;4.30;;
8401;SDS011;4238;48.404;9.498;2023-05-24T15:24:42;6.22;;;3.70;;
8401;SDS011;4238;48.404;9.498;2023-05-24T15:27:10;5.55;;;3.85;;
8401;SDS011;4238;48.404;9.498;2023-05-24T15:29:37;3.97;;;3.25;;
8401;SDS011;4238;48.404;9.498;2023-05-24T15:32:04;4.18;;;3.50;;
8401;SDS011;4238;48.404;9.498;2023-05-24T15:34:32;7.35;;;3.88;;
8401;SDS011;4238;48.404;9.498;2023-05-24T15:36:59;4.63;;;3.45;;
8401;SDS011;4238;48.404;9.498;2023-05-24T15:39:26;4.65;;;4.15;;
8401;SDS011;4238;48.404;9.498;2023-05-24T15:41:52;5.43;;;3.58;;
8401;SDS011;4238;48.404;9.498;2023-05-24T15:44:21;4.80;;;3.67;;
8401;SDS011;4238;48.404;9.498;2023-05-24T15:46:48;5.38;;;3.60;;
8401;SDS011;4238;48.404;9.498;2023-05-24T15:49:15;4.40;;;3.25;;
8401;SDS011;4238;48.404;9.498;2023-05-24T15:51:42;4.65;;;3.70;;
8401;SDS011;4238;48.404;9.498;2023-05-24T15:54:09;5.43;;;3.65;;
8401;SDS011;4238;48.404;9.498;2023-05-24T15:56:36;5.88;;;3.95;;
8401;SDS011;4238;48.404;9.498;2023-05-24T15:59:03;4.25;;;3.30;;
8401;SDS011;4238;48.404;9.498;2023-05-24T16:01:31;6.35;;;3.83;;
8401;SDS011;4238;48.404;9.498;2023-05-24T16:03:58;6.32;;;4.20;;
8401;SDS011;4238;48.404;9.498;2023-05-24T16:06:25;6.30;;;3.95;;
8401;SDS011;4238;48.404;9.498;2023-05-24T16:08:52;5.97;;;3.67;;
8401;SDS011;4238;48.404;9.498;2023-05-24T16:11:19;5.85;;;4.03;;
8401;SDS011;4238;48.404;9.498;2023-05-24T16:13:47;7.00;;;4.53;;
8401;SDS011;4238;48.404;9.498;2023-05-24T16:16:14;4.38;;;3.97;;
8401;SDS011;4238;48.404;9.498;2023-05-24T16:18:43;4.00;;;3.60;;
8401;SDS011;4238;48.404;9.498;2023-05-24T16:21:10;5.90;;;4.07;;
8401;SDS011;4238;48.404;9.498;2023-05-24T16:23:38;5.60;;;3.85;;
8401;SDS011;4238;48.404;9.498;2023-05-24T16:26:04;6.00;;;4.45;;
8401;SDS011;4238;48.404;9.498;2023-05-24T16:28:31;6.93;;;4.63;;
8401;SDS011;4238;48.404;9.498;2023-05-24T16:30:58;5.85;;;3.97;;
8401;SDS011;4238;48.404;9.498;2023-05-24T16:33:27;5.40;;;3.78;;
8401;SDS011;4238;48.404;9.498;2023-05-24T16:35:55;4.30;;;3.90;;
8401;SDS011;4238;48.404;9.498;2023-05-24T16:38:24;6.65;;;4.18;;
8401;SDS011;4238;48.404;9.498;2023-05-24T16:40:51;7.65;;;4.63;;
8401;SDS011;4238;48.404;9.498;2023-05-24T16:43:18;4.88;;;4.28;;
8401;SDS011;4238;48.404;9.498;2023-05-24T16:45:45;8.82;;;4.45;;
8401;SDS011;4238;48.404;9.498;2023-05-24T16:48:12;5.55;;;4.32;;
8401;SDS011;4238;48.404;9.498;2023-05-24T16:50:39;7.68;;;4.60;;
8401;SDS011;4238;48.404;9.498;2023-05-24T16:53:07;6.45;;;4.68;;
8401;SDS011;4238;48.404;9.498;2023-05-24T16:55:34;6.63;;;4.57;;
8401;SDS011;4238;48.404;9.498;2023-05-24T16:58:01;7.15;;;4.18;;
8401;SDS011;4238;48.404;9.498;2023-05-24T17:00:28;4.78;;;3.55;;
8401;SDS011;4238;48.404;9.498;2023-05-24T17:02:55;6.85;;;4.40;;
8401;SDS011;4238;48.404;9.498;2023-05-24T17:05:24;4.95;;;4.25;;
8401;SDS011;4238;48.404;9.498;2023-05-24T17:07:51;5.63;;;4.32;;
8401;SDS011;4238;48.404;9.498;2023-05-24T17:10:19;6.03;;;4.38;;
8401;SDS011;4238;48.404;9.498;2023-05-24T17:12:46;5.95;;;4.35;;
8401;SDS011;4238;48.404;9.498;2023-05-24T17:15:13;6.35;;;4.50;;
8401;SDS011;4238;48.404;9.498;2023-05-24T17:17:40;10.07;;;4.50;;
8401;SDS011;4238;48.404;9.498;2023-05-24T17:20:07;6.03;;;4.30;;
8401;SDS011;4238;48.404;9.498;2023-05-24T17:22:35;5.65;;;4.10;;
8401;SDS011;4238;48.404;9.498;2023-05-24T17:25:01;6.82;;;4.40;;
8401;SDS011;4238;48.404;9.498;2023-05-24T17:27:30;6.07;;;4.57;;
8401;SDS011;4238;48.404;9.498;2023-05-24T17:29:57;5.32;;;4.80;;
8401;SDS011;4238;48.404;9.498;2023-05-24T17:32:24;7.25;;;4.88;;
8401;SDS011;4238;48.404;9.498;2023-05-24T17:34:51;9.82;;;5.18;;
8401;SDS011;4238;48.404;9.498;2023-05-24T17:37:18;8.73;;;4.50;;
8401;SDS011;4238;48.404;9.498;2023-05-24T17:39:45;9.02;;;4.35;;
8401;SDS011;4238;48.404;9.498;2023-05-24T17:42:16;4.32;;;3.92;;
8401;SDS011;4238;48.404;9.498;2023-05-24T17:44:44;5.28;;;3.63;;
8401;SDS011;4238;48.404;9.498;2023-05-24T17:47:11;4.43;;;3.85;;
8401;SDS011;4238;48.404;9.498;2023-05-24T17:49:38;6.82;;;3.97;;
8401;SDS011;4238;48.404;9.498;2023-05-24T17:52:05;7.15;;;4.20;;
8401;SDS011;4238;48.404;9.498;2023-05-24T17:54:32;11.55;;;4.63;;
8401;SDS011;4238;48.404;9.498;2023-05-24T17:56:59;5.22;;;3.67;;
8401;SDS011;4238;48.404;9.498;2023-05-24T17:59:26;7.65;;;4.43;;
8401;SDS011;4238;48.404;9.498;2023-05-24T18:01:55;4.07;;;3.78;;
8401;SDS011;4238;48.404;9.498;2023-05-24T18:04:22;4.32;;;3.83;;
8401;SDS011;4238;48.404;9.498;2023-05-24T18:06:49;5.30;;;3.67;;
8401;SDS011;4238;48.404;9.498;2023-05-24T18:09:15;6.15;;;3.53;;
8401;SDS011;4238;48.404;9.498;2023-05-24T18:11:42;5.57;;;3.83;;
8401;SDS011;4238;48.404;9.498;2023-05-24T18:14:09;5.38;;;3.58;;
8401;SDS011;4238;48.404;9.498;2023-05-24T18:16:36;6.40;;;4.20;;
8401;SDS011;4238;48.404;9.498;2023-05-24T18:19:05;5.38;;;3.60;;
8401;SDS011;4238;48.404;9.498;2023-05-24T18:21:31;5.32;;;3.67;;
8401;SDS011;4238;48.404;9.498;2023-05-24T18:23:58;4.53;;;3.70;;
8401;SDS011;4238;48.404;9.498;2023-05-24T18:26:25;4.75;;;3.42;;
8401;SDS011;4238;48.404;9.498;2023-05-24T18:28:52;7.32;;;3.72;;
8401;SDS011;4238;48.404;9.498;2023-05-24T18:31:19;7.25;;;4.20;;
8401;SDS011;4238;48.404;9.498;2023-05-24T18:33:46;5.88;;;3.85;;
8401;SDS011;4238;48.404;9.498;2023-05-24T18:36:14;5.80;;;3.15;;
8401;SDS011;4238;48.404;9.498;2023-05-24T18:38:41;3.25;;;2.80;;
8401;SDS011;4238;48.404;9.498;2023-05-24T18:41:11;4.32;;;3.20;;
8401;SDS011;4238;48.404;9.498;2023-05-24T18:43:39;5.72;;;4.30;;
8401;SDS011;4238;48.404;9.498;2023-05-24T18:46:06;4.00;;;3.25;;
8401;SDS011;4238;48.404;9.498;2023-05-24T18:48:37;5.28;;;2.90;;
8401;SDS011;4238;48.404;9.498;2023-05-24T18:51:04;6.68;;;3.30;;
8401;SDS011;4238;48.404;9.498;2023-05-24T18:53:33;4.75;;;3.20;;
8401;SDS011;4238;48.404;9.498;2023-05-24T18:56:00;5.60;;;3.97;;
8401;SDS011;4238;48.404;9.498;2023-05-24T18:58:27;7.25;;;5.40;;
8401;SDS011;4238;48.404;9.498;2023-05-24T19:00:55;5.57;;;4.72;;
8401;SDS011;4238;48.404;9.498;2023-05-24T19:03:23;4.15;;;3.78;;
8401;SDS011;4238;48.404;9.498;2023-05-24T19:05:50;6.43;;;3.53;;
8401;SDS011;4238;48.404;9.498;2023-05-24T19:08:16;4.93;;;3.75;;
8401;SDS011;4238;48.404;9.498;2023-05-24T19:10:45;3.85;;;3.45;;
8401;SDS011;4238;48.404;9.498;2023-05-24T19:13:12;4.18;;;3.20;;
8401;SDS011;4238;48.404;9.498;2023-05-24T19:15:39;4.03;;;2.70;;
8401;SDS011;4238;48.404;9.498;2023-05-24T19:18:06;4.70;;;3.22;;
8401;SDS011;4238;48.404;9.498;2023-05-24T19:20:33;4.47;;;3.20;;
8401;SDS011;4238;48.404;9.498;2023-05-24T19:23:00;8.13;;;3.30;;
8401;SDS011;4238;48.404;9.498;2023-05-24T19:25:27;7.65;;;3.88;;
8401;SDS011;4238;48.404;9.498;2023-05-24T19:27:56;4.53;;;3.67;;